sensor_id;sensor_type;location;lat;lon;timestamp;P1;durP1;ratioP1;P2;durP2;ratioP2
8927;SDS011;4499;48.304;11.902;2023-03-23T00:02:03;5.37;;;3.23;;
8927;SDS011;4499;48.304;11.902;2023-03-23T00:04:31;4.17;;;2.80;;
8927;SDS011;4499;48.304;11.902;2023-03-23T00:06:58;3.53;;;2.80;;
8927;SDS011;4499;48.304;11.902;2023-03-23T00:09:26;6.10;;;3.30;;
8927;SDS011;4499;48.304;11.902;2023-03-23T00:11:53;5.33;;;3.00;;
8927;SDS011;4499;48.304;11.902;2023-03-23T00:14:23;6.27;;;3.10;;
8927;SDS011;4499;48.304;11.902;2023-03-23T00:16:50;4.30;;;3.17;;
8927;SDS011;4499;48.304;11.902;2023-03-23T00:19:18;5.80;;;2.93;;
8927;SDS011;4499;48.304;11.902;2023-03-23T00:21:45;3.30;;;2.80;;
8927;SDS011;4499;48.304;11.902;2023-03-23T00:24:13;6.00;;;2.90;;
8927;SDS011;4499;48.304;11.902;2023-03-23T00:26:43;3.97;;;3.00;;
8927;SDS011;4499;48.304;11.902;2023-03-23T00:29:12;3.43;;;2.87;;
8927;SDS011;4499;48.304;11.902;2023-03-23T00:31:43;4.50;;;2.70;;
8927;SDS011;4499;48.304;11.902;2023-03-23T00:34:12;3.33;;;2.67;;
8927;SDS011;4499;48.304;11.902;2023-03-23T00:36:44;4.60;;;2.87;;
8927;SDS011;4499;48.304;11.902;2023-03-23T00:39:11;4.80;;;2.80;;
8927;SDS011;4499;48.304;11.902;2023-03-23T00:41:41;4.93;;;3.27;;
8927;SDS011;4499;48.304;11.902;2023-03-23T00:44:08;4.10;;;3.07;;
8927;SDS011;4499;48.304;11.902;2023-03-23T00:46:35;7.23;;;2.97;;
8927;SDS011;4499;48.304;11.902;2023-03-23T00:49:11;5.10;;;3.20;;
8927;SDS011;4499;48.304;11.902;2023-03-23T00:51:39;4.03;;;2.97;;
8927;SDS011;4499;48.304;11.902;2023-03-23T00:54:06;5.50;;;3.40;;
8927;SDS011;4499;48.304;11.902;2023-03-23T00:56:33;5.20;;;2.87;;
8927;SDS011;4499;48.304;11.902;2023-03-23T00:59:01;4.93;;;3.03;;
8927;SDS011;4499;48.304;11.902;2023-03-23T01:01:31;3.47;;;3.00;;
8927;SDS011;4499;48.304;11.902;2023-03-23T01:03:59;5.60;;;3.27;;
8927;SDS011;4499;48.304;11.902;2023-03-23T01:06:30;3.87;;;2.93;;
8927;SDS011;4499;48.304;11.902;2023-03-23T01:09:00;4.77;;;3.30;;
8927;SDS011;4499;48.304;11.902;2023-03-23T01:11:29;5.27;;;3.03;;
8927;SDS011;4499;48.304;11.902;2023-03-23T01:13:56;3.60;;;2.93;;
8927;SDS011;4499;48.304;11.902;2023-03-23T01:16:23;5.50;;;3.13;;
8927;SDS011;4499;48.304;11.902;2023-03-23T01:18:50;5.30;;;3.20;;
8927;SDS011;4499;48.304;11.902;2023-03-23T01:21:19;5.10;;;3.20;;
8927;SDS011;4499;48.304;11.902;2023-03-23T01:23:48;4.00;;;3.40;;
8927;SDS011;4499;48.304;11.902;2023-03-23T01:26:16;5.63;;;3.30;;
8927;SDS011;4499;48.304;11.902;2023-03-23T01:28:44;3.97;;;3.07;;
8927;SDS011;4499;48.304;11.902;2023-03-23T01:31:12;3.83;;;3.20;;
8927;SDS011;4499;48.304;11.902;2023-03-23T01:33:41;5.13;;;3.30;;
8927;SDS011;4499;48.304;11.902;2023-03-23T01:36:10;3.97;;;3.10;;
8927;SDS011;4499;48.304;11.902;2023-03-23T01:38:38;5.30;;;3.17;;
8927;SDS011;4499;48.304;11.902;2023-03-23T01:41:06;3.43;;;3.03;;
8927;SDS011;4499;48.304;11.902;2023-03-23T01:43:33;6.53;;;3.50;;
8927;SDS011;4499;48.304;11.902;2023-03-23T01:46:01;4.83;;;3.30;;
8927;SDS011;4499;48.304;11.902;2023-03-23T01:48:29;7.10;;;2.97;;
8927;SDS011;4499;48.304;11.902;2023-03-23T01:50:59;3.70;;;3.27;;
8927;SDS011;4499;48.304;11.902;2023-03-23T01:53:31;4.03;;;3.20;;
8927;SDS011;4499;48.304;11.902;2023-03-23T01:56:01;5.70;;;3.40;;
8927;SDS011;4499;48.304;11.902;2023-03-23T01:58:30;3.73;;;3.30;;
8927;SDS011;4499;48.304;11.902;2023-03-23T02:01:01;4.67;;;3.17;;
8927;SDS011;4499;48.304;11.902;2023-03-23T02:03:31;4.17;;;3.00;;
8927;SDS011;4499;48.304;11.902;2023-03-23T02:06:01;4.23;;;3.00;;
8927;SDS011;4499;48.304;11.902;2023-03-23T02:08:29;4.10;;;3.00;;
8927;SDS011;4499;48.304;11.902;2023-03-23T02:10:58;5.37;;;3.30;;
8927;SDS011;4499;48.304;11.902;2023-03-23T02:13:26;4.03;;;3.20;;
8927;SDS011;4499;48.304;11.902;2023-03-23T02:15:58;5.37;;;3.00;;
8927;SDS011;4499;48.304;11.902;2023-03-23T02:18:39;5.67;;;3.20;;
8927;SDS011;4499;48.304;11.902;2023-03-23T02:21:35;4.37;;;3.30;;
8927;SDS011;4499;48.304;11.902;2023-03-23T02:27:20;3.90;;;2.90;;
8927;SDS011;4499;48.304;11.902;2023-03-23T02:30:13;4.60;;;2.90;;
8927;SDS011;4499;48.304;11.902;2023-03-23T02:35:56;3.70;;;3.03;;
8927;SDS011;4499;48.304;11.902;2023-03-23T02:38:27;5.67;;;3.30;;
8927;SDS011;4499;48.304;11.902;2023-03-23T02:40:59;5.33;;;3.33;;
8927;SDS011;4499;48.304;11.902;2023-03-23T02:43:30;4.93;;;3.23;;
8927;SDS011;4499;48.304;11.902;2023-03-23T02:46:01;3.97;;;2.90;;
8927;SDS011;4499;48.304;11.902;2023-03-23T02:48:36;5.23;;;3.20;;
8927;SDS011;4499;48.304;11.902;2023-03-23T02:51:06;5.03;;;2.93;;
8927;SDS011;4499;48.304;11.902;2023-03-23T02:53:36;7.87;;;3.30;;
8927;SDS011;4499;48.304;11.902;2023-03-23T02:56:06;5.13;;;3.20;;
8927;SDS011;4499;48.304;11.902;2023-03-23T02:58:36;4.00;;;2.90;;
8927;SDS011;4499;48.304;11.902;2023-03-23T03:04:11;7.83;;;3.00;;
8927;SDS011;4499;48.304;11.902;2023-03-23T03:06:42;4.40;;;2.80;;
8927;SDS011;4499;48.304;11.902;2023-03-23T03:09:19;6.13;;;3.33;;
8927;SDS011;4499;48.304;11.902;2023-03-23T03:11:54;5.00;;;3.10;;
8927;SDS011;4499;48.304;11.902;2023-03-23T03:14:28;3.87;;;2.67;;
8927;SDS011;4499;48.304;11.902;2023-03-23T03:17:00;3.50;;;2.87;;
8927;SDS011;4499;48.304;11.902;2023-03-23T03:19:33;4.13;;;2.90;;
8927;SDS011;4499;48.304;11.902;2023-03-23T03:22:04;3.30;;;2.87;;
8927;SDS011;4499;48.304;11.902;2023-03-23T03:24:33;3.73;;;2.90;;
8927;SDS011;4499;48.304;11.902;2023-03-23T03:27:02;2.93;;;2.57;;
8927;SDS011;4499;48.304;11.902;2023-03-23T03:29:32;4.73;;;2.70;;
8927;SDS011;4499;48.304;11.902;2023-03-23T03:32:03;5.47;;;3.00;;
8927;SDS011;4499;48.304;11.902;2023-03-23T03:34:34;4.27;;;2.90;;
8927;SDS011;4499;48.304;11.902;2023-03-23T03:37:01;3.40;;;3.00;;
8927;SDS011;4499;48.304;11.902;2023-03-23T03:39:31;4.57;;;2.70;;
8927;SDS011;4499;48.304;11.902;2023-03-23T03:42:01;5.43;;;2.93;;
8927;SDS011;4499;48.304;11.902;2023-03-23T03:44:28;5.37;;;3.00;;
8927;SDS011;4499;48.304;11.902;2023-03-23T03:46:59;4.50;;;2.90;;
8927;SDS011;4499;48.304;11.902;2023-03-23T03:49:26;4.37;;;2.80;;
8927;SDS011;4499;48.304;11.902;2023-03-23T03:51:55;4.47;;;2.97;;
8927;SDS011;4499;48.304;11.902;2023-03-23T03:54:22;4.67;;;2.67;;
8927;SDS011;4499;48.304;11.902;2023-03-23T03:56:49;8.30;;;2.90;;
8927;SDS011;4499;48.304;11.902;2023-03-23T03:59:17;5.37;;;2.80;;
8927;SDS011;4499;48.304;11.902;2023-03-23T04:01:44;3.00;;;2.60;;
8927;SDS011;4499;48.304;11.902;2023-03-23T04:04:11;4.30;;;3.00;;
8927;SDS011;4499;48.304;11.902;2023-03-23T04:06:38;4.10;;;2.77;;
8927;SDS011;4499;48.304;11.902;2023-03-23T04:09:06;5.07;;;3.07;;
8927;SDS011;4499;48.304;11.902;2023-03-23T04:11:33;3.30;;;2.67;;
8927;SDS011;4499;48.304;11.902;2023-03-23T04:14:01;4.17;;;2.60;;
8927;SDS011;4499;48.304;11.902;2023-03-23T04:16:28;4.13;;;2.90;;
8927;SDS011;4499;48.304;11.902;2023-03-23T04:18:55;4.93;;;2.90;;
8927;SDS011;4499;48.304;11.902;2023-03-23T04:21:22;6.13;;;3.20;;
8927;SDS011;4499;48.304;11.902;2023-03-23T04:23:54;3.03;;;2.70;;
8927;SDS011;4499;48.304;11.902;2023-03-23T04:26:25;3.87;;;3.07;;
8927;SDS011;4499;48.304;11.902;2023-03-23T04:28:53;4.97;;;3.07;;
8927;SDS011;4499;48.304;11.902;2023-03-23T04:31:21;4.60;;;3.07;;
8927;SDS011;4499;48.304;11.902;2023-03-23T04:33:49;6.50;;;4.80;;
8927;SDS011;4499;48.304;11.902;2023-03-23T04:36:18;7.23;;;4.67;;
8927;SDS011;4499;48.304;11.902;2023-03-23T04:38:47;5.70;;;3.80;;
8927;SDS011;4499;48.304;11.902;2023-03-23T04:41:19;3.63;;;3.10;;
8927;SDS011;4499;48.304;11.902;2023-03-23T04:43:49;5.50;;;2.70;;
8927;SDS011;4499;48.304;11.902;2023-03-23T04:46:18;3.60;;;2.80;;
8927;SDS011;4499;48.304;11.902;2023-03-23T04:48:46;3.67;;;2.70;;
8927;SDS011;4499;48.304;11.902;2023-03-23T04:51:13;5.03;;;2.87;;
8927;SDS011;4499;48.304;11.902;2023-03-23T04:53:40;5.23;;;2.93;;
8927;SDS011;4499;48.304;11.902;2023-03-23T04:56:07;4.80;;;2.77;;
8927;SDS011;4499;48.304;11.902;2023-03-23T04:58:35;4.40;;;2.60;;
8927;SDS011;4499;48.304;11.902;2023-03-23T05:01:03;4.03;;;2.70;;
8927;SDS011;4499;48.304;11.902;2023-03-23T05:03:30;7.17;;;3.10;;
8927;SDS011;4499;48.304;11.902;2023-03-23T05:06:00;3.70;;;2.70;;
8927;SDS011;4499;48.304;11.902;2023-03-23T05:08:28;5.47;;;3.03;;
8927;SDS011;4499;48.304;11.902;2023-03-23T05:10:57;4.70;;;2.83;;
8927;SDS011;4499;48.304;11.902;2023-03-23T05:13:25;3.93;;;3.00;;
8927;SDS011;4499;48.304;11.902;2023-03-23T05:15:53;3.80;;;2.80;;
8927;SDS011;4499;48.304;11.902;2023-03-23T05:18:22;8.70;;;3.03;;
8927;SDS011;4499;48.304;11.902;2023-03-23T05:20:49;5.53;;;2.50;;
8927;SDS011;4499;48.304;11.902;2023-03-23T05:23:18;3.13;;;2.80;;
8927;SDS011;4499;48.304;11.902;2023-03-23T05:25:52;5.50;;;2.73;;
8927;SDS011;4499;48.304;11.902;2023-03-23T05:28:20;3.77;;;2.80;;
8927;SDS011;4499;48.304;11.902;2023-03-23T05:30:47;4.10;;;2.63;;
8927;SDS011;4499;48.304;11.902;2023-03-23T05:33:14;4.90;;;2.60;;
8927;SDS011;4499;48.304;11.902;2023-03-23T05:35:43;3.77;;;3.00;;
8927;SDS011;4499;48.304;11.902;2023-03-23T05:38:12;4.17;;;2.97;;
8927;SDS011;4499;48.304;11.902;2023-03-23T05:40:39;4.00;;;2.73;;
8927;SDS011;4499;48.304;11.902;2023-03-23T05:43:07;4.63;;;2.60;;
8927;SDS011;4499;48.304;11.902;2023-03-23T05:45:34;6.00;;;3.27;;
8927;SDS011;4499;48.304;11.902;2023-03-23T05:48:02;4.50;;;2.70;;
8927;SDS011;4499;48.304;11.902;2023-03-23T05:50:29;4.43;;;2.70;;
8927;SDS011;4499;48.304;11.902;2023-03-23T05:52:57;6.57;;;2.50;;
8927;SDS011;4499;48.304;11.902;2023-03-23T05:55:24;3.87;;;2.70;;
8927;SDS011;4499;48.304;11.902;2023-03-23T05:57:51;3.70;;;2.70;;
8927;SDS011;4499;48.304;11.902;2023-03-23T06:00:19;5.37;;;2.60;;
8927;SDS011;4499;48.304;11.902;2023-03-23T06:02:48;3.00;;;2.70;;
8927;SDS011;4499;48.304;11.902;2023-03-23T06:05:16;4.80;;;3.10;;
8927;SDS011;4499;48.304;11.902;2023-03-23T06:07:44;4.10;;;2.57;;
8927;SDS011;4499;48.304;11.902;2023-03-23T06:10:12;4.23;;;2.60;;
8927;SDS011;4499;48.304;11.902;2023-03-23T06:12:40;5.13;;;2.90;;
8927;SDS011;4499;48.304;11.902;2023-03-23T06:15:07;3.47;;;2.60;;
8927;SDS011;4499;48.304;11.902;2023-03-23T06:17:36;4.20;;;2.50;;
8927;SDS011;4499;48.304;11.902;2023-03-23T06:20:03;6.37;;;2.70;;
8927;SDS011;4499;48.304;11.902;2023-03-23T06:22:35;6.27;;;2.30;;
8927;SDS011;4499;48.304;11.902;2023-03-23T06:25:03;4.10;;;2.53;;
8927;SDS011;4499;48.304;11.902;2023-03-23T06:27:32;6.47;;;2.60;;
8927;SDS011;4499;48.304;11.902;2023-03-23T06:30:00;3.77;;;2.60;;
8927;SDS011;4499;48.304;11.902;2023-03-23T06:32:28;3.23;;;2.40;;
8927;SDS011;4499;48.304;11.902;2023-03-23T06:34:56;3.50;;;2.40;;
8927;SDS011;4499;48.304;11.902;2023-03-23T06:37:27;5.93;;;2.43;;
8927;SDS011;4499;48.304;11.902;2023-03-23T06:39:54;3.13;;;2.30;;
8927;SDS011;4499;48.304;11.902;2023-03-23T06:42:21;4.73;;;2.50;;
8927;SDS011;4499;48.304;11.902;2023-03-23T06:44:52;4.00;;;2.50;;
8927;SDS011;4499;48.304;11.902;2023-03-23T06:47:21;9.10;;;2.57;;
8927;SDS011;4499;48.304;11.902;2023-03-23T06:50:17;4.90;;;2.83;;
8927;SDS011;4499;48.304;11.902;2023-03-23T06:52:45;6.17;;;2.40;;
8927;SDS011;4499;48.304;11.902;2023-03-23T06:55:12;4.90;;;2.60;;
8927;SDS011;4499;48.304;11.902;2023-03-23T06:57:39;4.80;;;2.30;;
8927;SDS011;4499;48.304;11.902;2023-03-23T07:00:09;2.93;;;2.30;;
8927;SDS011;4499;48.304;11.902;2023-03-23T07:02:38;3.40;;;2.60;;
8927;SDS011;4499;48.304;11.902;2023-03-23T07:05:06;4.97;;;3.27;;
8927;SDS011;4499;48.304;11.902;2023-03-23T07:07:34;3.83;;;2.60;;
8927;SDS011;4499;48.304;11.902;2023-03-23T07:10:01;2.60;;;2.20;;
8927;SDS011;4499;48.304;11.902;2023-03-23T07:12:28;5.47;;;2.20;;
8927;SDS011;4499;48.304;11.902;2023-03-23T07:14:55;3.97;;;2.07;;
8927;SDS011;4499;48.304;11.902;2023-03-23T07:17:24;4.87;;;2.30;;
8927;SDS011;4499;48.304;11.902;2023-03-23T07:19:51;2.67;;;2.10;;
8927;SDS011;4499;48.304;11.902;2023-03-23T07:22:18;4.33;;;2.30;;
8927;SDS011;4499;48.304;11.902;2023-03-23T07:24:45;4.40;;;2.43;;
8927;SDS011;4499;48.304;11.902;2023-03-23T07:27:12;4.50;;;2.30;;
8927;SDS011;4499;48.304;11.902;2023-03-23T07:29:40;3.93;;;2.23;;
8927;SDS011;4499;48.304;11.902;2023-03-23T07:32:08;5.23;;;2.10;;
8927;SDS011;4499;48.304;11.902;2023-03-23T07:34:39;3.27;;;2.10;;
8927;SDS011;4499;48.304;11.902;2023-03-23T07:37:06;4.03;;;2.13;;
8927;SDS011;4499;48.304;11.902;2023-03-23T07:39:33;2.73;;;2.10;;
8927;SDS011;4499;48.304;11.902;2023-03-23T07:42:01;3.27;;;1.97;;
8927;SDS011;4499;48.304;11.902;2023-03-23T07:44:28;2.37;;;1.90;;
8927;SDS011;4499;48.304;11.902;2023-03-23T07:46:55;3.20;;;2.17;;
8927;SDS011;4499;48.304;11.902;2023-03-23T07:49:22;2.77;;;1.80;;
8927;SDS011;4499;48.304;11.902;2023-03-23T07:51:53;3.50;;;2.17;;
8927;SDS011;4499;48.304;11.902;2023-03-23T07:54:21;3.47;;;1.90;;
8927;SDS011;4499;48.304;11.902;2023-03-23T07:56:49;3.10;;;2.00;;
8927;SDS011;4499;48.304;11.902;2023-03-23T07:59:16;2.17;;;1.73;;
8927;SDS011;4499;48.304;11.902;2023-03-23T08:01:43;2.90;;;2.00;;
8927;SDS011;4499;48.304;11.902;2023-03-23T08:04:10;2.50;;;2.00;;
8927;SDS011;4499;48.304;11.902;2023-03-23T08:06:38;4.13;;;2.10;;
8927;SDS011;4499;48.304;11.902;2023-03-23T08:09:07;3.63;;;1.90;;
8927;SDS011;4499;48.304;11.902;2023-03-23T08:11:35;3.13;;;2.10;;
8927;SDS011;4499;48.304;11.902;2023-03-23T08:14:02;2.20;;;2.00;;
8927;SDS011;4499;48.304;11.902;2023-03-23T08:16:30;3.67;;;2.20;;
8927;SDS011;4499;48.304;11.902;2023-03-23T08:18:58;4.23;;;2.00;;
8927;SDS011;4499;48.304;11.902;2023-03-23T08:21:26;3.63;;;1.90;;
8927;SDS011;4499;48.304;11.902;2023-03-23T08:23:53;2.50;;;2.10;;
8927;SDS011;4499;48.304;11.902;2023-03-23T08:26:21;4.27;;;2.10;;
8927;SDS011;4499;48.304;11.902;2023-03-23T08:28:48;3.77;;;2.27;;
8927;SDS011;4499;48.304;11.902;2023-03-23T08:31:15;3.17;;;2.07;;
8927;SDS011;4499;48.304;11.902;2023-03-23T08:33:43;3.20;;;2.20;;
8927;SDS011;4499;48.304;11.902;2023-03-23T08:36:10;2.87;;;2.17;;
8927;SDS011;4499;48.304;11.902;2023-03-23T08:38:38;3.90;;;2.57;;
8927;SDS011;4499;48.304;11.902;2023-03-23T08:41:05;4.63;;;2.20;;
8927;SDS011;4499;48.304;11.902;2023-03-23T08:43:35;2.60;;;2.20;;
8927;SDS011;4499;48.304;11.902;2023-03-23T08:46:03;4.43;;;2.40;;
8927;SDS011;4499;48.304;11.902;2023-03-23T08:48:34;3.40;;;2.17;;
8927;SDS011;4499;48.304;11.902;2023-03-23T08:51:02;4.50;;;2.07;;
8927;SDS011;4499;48.304;11.902;2023-03-23T08:53:29;3.60;;;2.20;;
8927;SDS011;4499;48.304;11.902;2023-03-23T08:56:02;3.47;;;2.23;;
8927;SDS011;4499;48.304;11.902;2023-03-23T08:58:29;3.57;;;2.17;;
8927;SDS011;4499;48.304;11.902;2023-03-23T09:00:58;2.90;;;2.20;;
8927;SDS011;4499;48.304;11.902;2023-03-23T09:03:26;3.07;;;2.10;;
8927;SDS011;4499;48.304;11.902;2023-03-23T09:05:53;2.83;;;2.00;;
8927;SDS011;4499;48.304;11.902;2023-03-23T09:08:25;3.53;;;2.60;;
8927;SDS011;4499;48.304;11.902;2023-03-23T09:10:54;3.03;;;2.30;;
8927;SDS011;4499;48.304;11.902;2023-03-23T09:13:21;4.83;;;2.30;;
8927;SDS011;4499;48.304;11.902;2023-03-23T09:15:48;6.57;;;2.33;;
8927;SDS011;4499;48.304;11.902;2023-03-23T09:18:18;3.40;;;2.30;;
8927;SDS011;4499;48.304;11.902;2023-03-23T09:20:46;3.20;;;2.10;;
8927;SDS011;4499;48.304;11.902;2023-03-23T09:23:16;3.73;;;2.30;;
8927;SDS011;4499;48.304;11.902;2023-03-23T09:25:43;2.20;;;2.00;;
8927;SDS011;4499;48.304;11.902;2023-03-23T09:28:10;3.03;;;2.03;;
8927;SDS011;4499;48.304;11.902;2023-03-23T09:30:39;4.37;;;2.17;;
8927;SDS011;4499;48.304;11.902;2023-03-23T09:33:08;3.87;;;2.10;;
8927;SDS011;4499;48.304;11.902;2023-03-23T09:35:36;1.97;;;1.53;;
8927;SDS011;4499;48.304;11.902;2023-03-23T09:38:06;3.60;;;1.97;;
8927;SDS011;4499;48.304;11.902;2023-03-23T09:40:39;2.60;;;1.77;;
8927;SDS011;4499;48.304;11.902;2023-03-23T09:43:18;2.80;;;1.87;;
8927;SDS011;4499;48.304;11.902;2023-03-23T09:46:06;2.47;;;1.80;;
8927;SDS011;4499;48.304;11.902;2023-03-23T09:48:44;4.47;;;2.10;;
8927;SDS011;4499;48.304;11.902;2023-03-23T09:51:21;2.57;;;1.93;;
8927;SDS011;4499;48.304;11.902;2023-03-23T09:54:05;3.20;;;1.90;;
8927;SDS011;4499;48.304;11.902;2023-03-23T09:56:39;4.07;;;1.90;;
8927;SDS011;4499;48.304;11.902;2023-03-23T09:59:09;3.57;;;2.03;;
8927;SDS011;4499;48.304;11.902;2023-03-23T10:01:41;5.13;;;2.03;;
8927;SDS011;4499;48.304;11.902;2023-03-23T10:04:14;2.37;;;1.90;;
8927;SDS011;4499;48.304;11.902;2023-03-23T10:06:50;2.70;;;1.90;;
8927;SDS011;4499;48.304;11.902;2023-03-23T10:09:17;4.33;;;2.23;;
8927;SDS011;4499;48.304;11.902;2023-03-23T10:11:49;5.27;;;2.30;;
8927;SDS011;4499;48.304;11.902;2023-03-23T10:14:25;3.97;;;1.80;;
8927;SDS011;4499;48.304;11.902;2023-03-23T10:17:04;5.70;;;2.30;;
8927;SDS011;4499;48.304;11.902;2023-03-23T10:19:42;3.20;;;2.20;;
8927;SDS011;4499;48.304;11.902;2023-03-23T10:25:08;5.83;;;2.10;;
8927;SDS011;4499;48.304;11.902;2023-03-23T10:27:43;2.77;;;2.07;;
8927;SDS011;4499;48.304;11.902;2023-03-23T10:30:17;4.17;;;2.00;;
8927;SDS011;4499;48.304;11.902;2023-03-23T10:32:52;3.67;;;2.10;;
8927;SDS011;4499;48.304;11.902;2023-03-23T10:35:24;3.87;;;1.87;;
8927;SDS011;4499;48.304;11.902;2023-03-23T10:37:59;7.67;;;1.80;;
8927;SDS011;4499;48.304;11.902;2023-03-23T10:40:29;3.17;;;1.90;;
8927;SDS011;4499;48.304;11.902;2023-03-23T10:43:00;1.83;;;1.70;;
8927;SDS011;4499;48.304;11.902;2023-03-23T10:45:28;3.60;;;1.90;;
8927;SDS011;4499;48.304;11.902;2023-03-23T10:47:59;3.63;;;1.90;;
8927;SDS011;4499;48.304;11.902;2023-03-23T10:50:38;4.07;;;2.07;;
8927;SDS011;4499;48.304;11.902;2023-03-23T10:53:11;3.07;;;2.20;;
8927;SDS011;4499;48.304;11.902;2023-03-23T10:55:43;2.93;;;2.00;;
8927;SDS011;4499;48.304;11.902;2023-03-23T10:58:12;3.47;;;1.70;;
8927;SDS011;4499;48.304;11.902;2023-03-23T11:00:49;2.67;;;1.80;;
8927;SDS011;4499;48.304;11.902;2023-03-23T11:03:22;2.50;;;1.70;;
8927;SDS011;4499;48.304;11.902;2023-03-23T11:05:56;2.87;;;1.80;;
8927;SDS011;4499;48.304;11.902;2023-03-23T11:08:26;3.17;;;1.67;;
8927;SDS011;4499;48.304;11.902;2023-03-23T11:10:56;3.30;;;1.80;;
8927;SDS011;4499;48.304;11.902;2023-03-23T11:13:37;3.10;;;1.80;;
8927;SDS011;4499;48.304;11.902;2023-03-23T11:16:08;5.33;;;1.70;;
8927;SDS011;4499;48.304;11.902;2023-03-23T11:18:37;3.00;;;1.57;;
8927;SDS011;4499;48.304;11.902;2023-03-23T11:21:06;4.27;;;1.93;;
8927;SDS011;4499;48.304;11.902;2023-03-23T11:23:37;4.30;;;1.97;;
8927;SDS011;4499;48.304;11.902;2023-03-23T11:26:12;2.80;;;1.80;;
8927;SDS011;4499;48.304;11.902;2023-03-23T11:28:45;3.53;;;1.87;;
8927;SDS011;4499;48.304;11.902;2023-03-23T11:31:15;5.53;;;2.10;;
8927;SDS011;4499;48.304;11.902;2023-03-23T11:33:47;3.83;;;2.10;;
8927;SDS011;4499;48.304;11.902;2023-03-23T11:36:18;3.90;;;2.20;;
8927;SDS011;4499;48.304;11.902;2023-03-23T11:38:53;2.87;;;2.00;;
8927;SDS011;4499;48.304;11.902;2023-03-23T11:41:23;3.90;;;2.10;;
8927;SDS011;4499;48.304;11.902;2023-03-23T11:43:51;3.60;;;1.93;;
8927;SDS011;4499;48.304;11.902;2023-03-23T11:46:22;2.40;;;2.20;;
8927;SDS011;4499;48.304;11.902;2023-03-23T11:48:59;3.77;;;2.23;;
8927;SDS011;4499;48.304;11.902;2023-03-23T11:51:30;2.93;;;2.30;;
8927;SDS011;4499;48.304;11.902;2023-03-23T11:54:07;6.67;;;2.10;;
8927;SDS011;4499;48.304;11.902;2023-03-23T11:56:42;2.47;;;2.00;;
8927;SDS011;4499;48.304;11.902;2023-03-23T11:59:11;2.87;;;1.93;;
8927;SDS011;4499;48.304;11.902;2023-03-23T12:01:43;6.60;;;1.93;;
8927;SDS011;4499;48.304;11.902;2023-03-23T12:04:27;2.90;;;2.10;;
8927;SDS011;4499;48.304;11.902;2023-03-23T12:10:14;3.90;;;2.30;;
8927;SDS011;4499;48.304;11.902;2023-03-23T12:12:51;3.97;;;2.20;;
8927;SDS011;4499;48.304;11.902;2023-03-23T12:15:30;3.40;;;2.23;;
8927;SDS011;4499;48.304;11.902;2023-03-23T12:18:06;23.97;;;7.50;;
8927;SDS011;4499;48.304;11.902;2023-03-23T12:20:45;5.20;;;2.97;;
8927;SDS011;4499;48.304;11.902;2023-03-23T12:23:23;3.67;;;2.20;;
8927;SDS011;4499;48.304;11.902;2023-03-23T12:26:06;4.23;;;2.40;;
8927;SDS011;4499;48.304;11.902;2023-03-23T12:29:04;9.00;;;2.80;;
8927;SDS011;4499;48.304;11.902;2023-03-23T12:31:44;4.80;;;2.50;;
8927;SDS011;4499;48.304;11.902;2023-03-23T12:34:19;5.20;;;2.40;;
8927;SDS011;4499;48.304;11.902;2023-03-23T12:42:41;4.13;;;2.60;;
8927;SDS011;4499;48.304;11.902;2023-03-23T12:45:17;2.90;;;1.90;;
8927;SDS011;4499;48.304;11.902;2023-03-23T12:47:50;5.17;;;2.50;;
8927;SDS011;4499;48.304;11.902;2023-03-23T12:50:25;4.00;;;2.30;;
8927;SDS011;4499;48.304;11.902;2023-03-23T12:52:58;4.20;;;2.27;;
8927;SDS011;4499;48.304;11.902;2023-03-23T12:55:32;3.87;;;2.07;;
8927;SDS011;4499;48.304;11.902;2023-03-23T12:58:05;2.60;;;2.00;;
8927;SDS011;4499;48.304;11.902;2023-03-23T13:00:46;4.27;;;2.00;;
8927;SDS011;4499;48.304;11.902;2023-03-23T13:03:20;2.80;;;2.10;;
8927;SDS011;4499;48.304;11.902;2023-03-23T13:05:57;2.20;;;2.00;;
8927;SDS011;4499;48.304;11.902;2023-03-23T13:08:30;3.13;;;2.10;;
8927;SDS011;4499;48.304;11.902;2023-03-23T13:11:03;7.57;;;2.10;;
8927;SDS011;4499;48.304;11.902;2023-03-23T13:13:43;3.07;;;2.20;;
8927;SDS011;4499;48.304;11.902;2023-03-23T13:16:16;3.70;;;2.27;;
8927;SDS011;4499;48.304;11.902;2023-03-23T13:18:55;4.53;;;1.97;;
8927;SDS011;4499;48.304;11.902;2023-03-23T13:21:29;3.93;;;2.10;;
8927;SDS011;4499;48.304;11.902;2023-03-23T13:23:59;4.60;;;2.30;;
8927;SDS011;4499;48.304;11.902;2023-03-23T13:26:30;2.43;;;2.10;;
8927;SDS011;4499;48.304;11.902;2023-03-23T13:28:59;4.07;;;2.00;;
8927;SDS011;4499;48.304;11.902;2023-03-23T13:31:29;5.80;;;2.33;;
8927;SDS011;4499;48.304;11.902;2023-03-23T13:34:00;4.00;;;2.43;;
8927;SDS011;4499;48.304;11.902;2023-03-23T13:36:31;2.60;;;2.20;;
8927;SDS011;4499;48.304;11.902;2023-03-23T13:39:02;4.03;;;2.33;;
8927;SDS011;4499;48.304;11.902;2023-03-23T13:41:32;3.53;;;2.00;;
8927;SDS011;4499;48.304;11.902;2023-03-23T13:44:14;2.20;;;1.60;;
8927;SDS011;4499;48.304;11.902;2023-03-23T13:46:53;3.30;;;1.67;;
8927;SDS011;4499;48.304;11.902;2023-03-23T13:49:22;2.40;;;1.53;;
8927;SDS011;4499;48.304;11.902;2023-03-23T13:52:14;2.83;;;1.70;;
8927;SDS011;4499;48.304;11.902;2023-03-23T13:54:49;4.27;;;1.70;;
8927;SDS011;4499;48.304;11.902;2023-03-23T13:57:23;5.33;;;1.70;;
8927;SDS011;4499;48.304;11.902;2023-03-23T14:03:00;2.23;;;1.60;;
8927;SDS011;4499;48.304;11.902;2023-03-23T14:05:34;2.00;;;1.77;;
8927;SDS011;4499;48.304;11.902;2023-03-23T14:08:03;1.57;;;1.47;;
8927;SDS011;4499;48.304;11.902;2023-03-23T14:10:41;2.77;;;1.80;;
8927;SDS011;4499;48.304;11.902;2023-03-23T14:13:14;3.90;;;1.70;;
8927;SDS011;4499;48.304;11.902;2023-03-23T14:15:54;5.07;;;1.53;;
8927;SDS011;4499;48.304;11.902;2023-03-23T14:18:23;1.60;;;1.40;;
8927;SDS011;4499;48.304;11.902;2023-03-23T14:20:55;2.97;;;1.60;;
8927;SDS011;4499;48.304;11.902;2023-03-23T14:23:23;3.23;;;1.50;;
8927;SDS011;4499;48.304;11.902;2023-03-23T14:25:54;2.63;;;1.53;;
8927;SDS011;4499;48.304;11.902;2023-03-23T14:28:23;2.80;;;1.53;;
8927;SDS011;4499;48.304;11.902;2023-03-23T14:30:54;3.33;;;1.40;;
8927;SDS011;4499;48.304;11.902;2023-03-23T14:33:22;1.30;;;1.20;;
8927;SDS011;4499;48.304;11.902;2023-03-23T14:35:53;2.83;;;1.67;;
8927;SDS011;4499;48.304;11.902;2023-03-23T14:38:24;2.10;;;1.53;;
8927;SDS011;4499;48.304;11.902;2023-03-23T14:40:59;2.40;;;1.63;;
8927;SDS011;4499;48.304;11.902;2023-03-23T14:43:29;3.40;;;1.60;;
8927;SDS011;4499;48.304;11.902;2023-03-23T14:46:02;4.17;;;1.63;;
8927;SDS011;4499;48.304;11.902;2023-03-23T14:48:33;4.20;;;1.67;;
8927;SDS011;4499;48.304;11.902;2023-03-23T14:51:03;2.70;;;1.60;;
8927;SDS011;4499;48.304;11.902;2023-03-23T14:53:33;3.13;;;1.80;;
8927;SDS011;4499;48.304;11.902;2023-03-23T14:56:03;1.90;;;1.60;;
8927;SDS011;4499;48.304;11.902;2023-03-23T14:58:37;5.93;;;1.80;;
8927;SDS011;4499;48.304;11.902;2023-03-23T15:01:07;4.57;;;1.73;;
8927;SDS011;4499;48.304;11.902;2023-03-23T15:03:38;2.73;;;1.50;;
8927;SDS011;4499;48.304;11.902;2023-03-23T15:06:11;3.67;;;1.60;;
8927;SDS011;4499;48.304;11.902;2023-03-23T15:08:41;2.50;;;1.70;;
8927;SDS011;4499;48.304;11.902;2023-03-23T15:11:12;3.53;;;1.57;;
8927;SDS011;4499;48.304;11.902;2023-03-23T15:13:50;2.63;;;1.80;;
8927;SDS011;4499;48.304;11.902;2023-03-23T15:16:21;3.93;;;1.70;;
8927;SDS011;4499;48.304;11.902;2023-03-23T15:18:50;3.70;;;1.80;;
8927;SDS011;4499;48.304;11.902;2023-03-23T15:21:24;4.23;;;2.27;;
8927;SDS011;4499;48.304;11.902;2023-03-23T15:23:54;2.43;;;2.10;;
8927;SDS011;4499;48.304;11.902;2023-03-23T15:26:29;3.67;;;1.90;;
8927;SDS011;4499;48.304;11.902;2023-03-23T15:29:10;5.80;;;2.00;;
8927;SDS011;4499;48.304;11.902;2023-03-23T15:31:41;4.10;;;1.80;;
8927;SDS011;4499;48.304;11.902;2023-03-23T15:34:12;3.10;;;1.60;;
8927;SDS011;4499;48.304;11.902;2023-03-23T15:36:44;3.27;;;1.70;;
8927;SDS011;4499;48.304;11.902;2023-03-23T15:39:11;5.00;;;2.00;;
8927;SDS011;4499;48.304;11.902;2023-03-23T15:41:46;3.73;;;1.67;;
8927;SDS011;4499;48.304;11.902;2023-03-23T15:44:20;5.07;;;1.90;;
8927;SDS011;4499;48.304;11.902;2023-03-23T15:46:52;3.03;;;1.80;;